Acampo, California
Current Conditions -  °F | °C
As of 12:55 PM on Friday 19 Dec 2014 (Local Time) from KSCK Reporting Station
Light Rain Light Rain  
Wind Chill: 52°   Ceiling: 4400
Heat Index: 52°   Visibility: 5mi
Dew Point: 49°   Wind: 6mph
Humidity: 89%   Direction: 80°E
Pressure: 30.17"   Gusts: NA
Location:  38.17°N, 121.28°W
Report Text: KSCK 192055Z 08005KT 5SM -RA BR OVC044 11/09 A3017 RMK AO2 SLP215 P0004 60011 T01110094 55000
Loading
Personal Weather Stations






























Interactive Weather Map New forecast layout! Learn more

10-Day Weather Forecast

Advertisements
Track Severe Weather on mobile